createdAt,value
2019-01-25T00:00:36.226Z,27.53
2019-01-25T00:03:10.354Z,30.60
2019-01-25T00:05:36.684Z,28.67
2019-01-25T00:08:05.628Z,29.60
2019-01-25T00:10:34.547Z,29.53
2019-01-25T00:13:03.130Z,27.53
2019-01-25T00:15:31.681Z,28.77
2019-01-25T00:18:00.206Z,28.90
2019-01-25T00:20:28.779Z,28.43
2019-01-25T00:22:57.328Z,27.83
2019-01-25T00:25:25.804Z,27.63
2019-01-25T00:27:54.316Z,27.07
2019-01-25T00:30:22.948Z,27.27
2019-01-25T00:32:51.527Z,28.63
2019-01-25T00:35:20.077Z,27.10
2019-01-25T00:37:48.829Z,29.40
2019-01-25T00:40:21.235Z,29.37
2019-01-25T00:42:49.782Z,26.60
2019-01-25T00:45:18.361Z,29.53
2019-01-25T00:47:46.895Z,26.30
2019-01-25T00:50:20.375Z,27.43
2019-01-25T00:52:50.001Z,27.27
2019-01-25T00:55:18.762Z,27.83
2019-01-25T00:57:47.583Z,28.93
2019-01-25T01:00:24.509Z,27.93
2019-01-25T01:02:53.199Z,28.50
2019-01-25T01:05:21.903Z,29.57
2019-01-25T01:07:51.709Z,31.03
2019-01-25T01:10:20.925Z,30.03
2019-01-25T01:12:50.244Z,28.77
2019-01-25T01:15:19.182Z,29.50
2019-01-25T01:17:47.765Z,29.90
2019-01-25T01:20:19.208Z,29.63
2019-01-25T01:22:48.045Z,27.97
2019-01-25T01:25:18.993Z,28.90
2019-01-25T01:27:47.651Z,31.33
2019-01-25T01:30:21.372Z,27.67
2019-01-25T01:32:50.349Z,27.60
2019-01-25T01:35:18.906Z,28.20
2019-01-25T01:37:47.636Z,29.07
2019-01-25T01:40:22.090Z,31.43
2019-01-25T01:42:53.014Z,28.73
2019-01-25T01:45:21.534Z,30.77
2019-01-25T01:47:50.991Z,31.13
2019-01-25T01:50:20.358Z,28.40
2019-01-25T01:52:49.452Z,29.77
2019-01-25T01:55:17.929Z,28.53
2019-01-25T01:57:46.487Z,30.27
2019-01-25T02:00:20.939Z,30.20
2019-01-25T02:02:50.063Z,31.03
2019-01-25T02:05:18.712Z,30.73
2019-01-25T02:07:47.259Z,29.10
2019-01-25T02:10:19.065Z,30.97
2019-01-25T02:12:47.524Z,31.17
2019-01-25T02:15:17.884Z,29.80
2019-01-25T02:17:46.514Z,30.53
2019-01-25T02:20:20.265Z,30.17
2019-01-25T02:22:48.843Z,29.67
2019-01-25T02:25:18.631Z,29.93
2019-01-25T02:27:47.465Z,29.57
2019-01-25T02:30:24.029Z,29.83
2019-01-25T02:32:53.065Z,30.13
2019-01-25T02:35:21.702Z,29.67
2019-01-25T02:37:50.375Z,30.70
2019-01-25T02:40:21.326Z,30.07
2019-01-25T02:42:49.957Z,29.07
2019-01-25T02:45:19.861Z,29.30
2019-01-25T02:47:48.663Z,28.23
2019-01-25T02:50:21.295Z,28.97
2019-01-25T02:52:51.404Z,28.80
2019-01-25T02:55:21.331Z,28.83
2019-01-25T02:57:49.811Z,28.97
2019-01-25T03:00:25.993Z,29.23
2019-01-25T03:02:54.686Z,28.20
2019-01-25T03:05:23.930Z,28.50
2019-01-25T03:07:52.683Z,27.93
2019-01-25T03:10:28.560Z,27.63
2019-01-25T03:12:53.418Z,26.83
2019-01-25T03:15:25.856Z,27.67
2019-01-25T03:17:55.607Z,27.70
2019-01-25T03:20:24.894Z,26.20
2019-01-25T03:22:53.462Z,25.80
2019-01-25T03:25:24.072Z,26.17
2019-01-25T03:27:52.729Z,24.40
2019-01-25T03:30:22.952Z,25.63
2019-01-25T03:32:51.654Z,26.40
2019-01-25T03:35:23.232Z,28.10
2019-01-25T03:37:52.196Z,24.73
2019-01-25T03:40:23.124Z,26.43
2019-01-25T03:42:51.740Z,26.10
2019-01-25T03:45:20.689Z,26.10
2019-01-25T03:47:49.399Z,26.07
2019-01-25T03:50:23.638Z,25.87
2019-01-25T03:52:52.239Z,26.87
2019-01-25T03:55:21.742Z,25.77
2019-01-25T03:57:50.452Z,26.07
2019-01-25T04:00:21.417Z,27.27
2019-01-25T04:02:50.086Z,25.97
2019-01-25T04:05:19.515Z,28.33
2019-01-25T04:07:48.309Z,26.03
2019-01-25T04:10:19.376Z,26.57
2019-01-25T04:12:47.922Z,25.70
2019-01-25T04:15:22.164Z,27.17
2019-01-25T04:17:50.910Z,25.07
2019-01-25T04:20:21.138Z,26.30
2019-01-25T04:22:49.594Z,26.27
2019-01-25T04:25:20.121Z,27.63
2019-01-25T04:27:49.042Z,26.83
2019-01-25T04:30:22.906Z,26.63
2019-01-25T04:32:51.520Z,26.10
2019-01-25T04:35:20.093Z,26.40
2019-01-25T04:37:48.756Z,27.93
2019-01-25T04:40:18.574Z,25.93
2019-01-25T04:42:47.110Z,25.43
2019-01-25T04:45:20.956Z,27.20
2019-01-25T04:47:49.954Z,25.63
2019-01-25T04:50:20.288Z,26.23
2019-01-25T04:52:48.926Z,27.20
2019-01-25T04:55:25.902Z,26.13
2019-01-25T04:57:54.444Z,25.70
2019-01-25T05:00:23.886Z,26.10
2019-01-25T05:02:57.718Z,26.63
2019-01-25T05:05:27.161Z,25.73
2019-01-25T05:08:16.742Z,27.10
2019-01-25T05:10:45.302Z,25.63
2019-01-25T05:13:13.861Z,25.90
2019-01-25T05:15:42.577Z,27.03
2019-01-25T05:18:11.200Z,26.07
2019-01-25T05:20:39.894Z,26.53
2019-01-25T05:23:09.136Z,26.40
2019-01-25T05:25:37.873Z,26.77
2019-01-25T05:28:11.967Z,27.80
2019-01-25T05:30:43.649Z,25.57
2019-01-25T05:33:12.166Z,26.77
2019-01-25T05:35:40.650Z,27.53
2019-01-25T05:38:09.166Z,26.17
2019-01-25T05:40:38.009Z,26.77
2019-01-25T05:43:06.514Z,26.97
2019-01-25T05:45:38.177Z,26.60
2019-01-25T05:48:07.040Z,26.50
2019-01-25T05:50:35.586Z,26.20
2019-01-25T05:53:04.151Z,26.70
2019-01-25T05:55:32.811Z,26.77
2019-01-25T05:58:03.045Z,27.77
2019-01-25T06:00:35.914Z,25.27
2019-01-25T06:03:12.852Z,25.37
2019-01-25T06:05:41.792Z,27.80
2019-01-25T06:08:34.071Z,26.77
2019-01-25T06:11:05.231Z,27.50
2019-01-25T06:13:33.718Z,27.50
2019-01-25T06:16:02.493Z,27.63
2019-01-25T06:18:31.055Z,28.67
2019-01-25T06:20:59.746Z,28.70
2019-01-25T06:23:28.374Z,27.43
2019-01-25T06:25:58.426Z,27.73
2019-01-25T06:28:27.369Z,28.73
2019-01-25T06:30:55.994Z,28.67
2019-01-25T06:33:24.632Z,26.33
2019-01-25T06:35:53.198Z,26.87
2019-01-25T06:38:22.012Z,27.53
2019-01-25T06:40:50.490Z,28.57
2019-01-25T06:43:19.055Z,28.70
2019-01-25T06:45:47.611Z,29.13
2019-01-25T06:48:16.270Z,26.47
2019-01-25T06:50:44.844Z,28.07
2019-01-25T06:53:13.396Z,27.07
2019-01-25T06:55:42.046Z,27.50
2019-01-25T06:58:15.240Z,28.00
2019-01-25T07:00:57.358Z,28.73
2019-01-25T07:03:25.917Z,27.83
2019-01-25T07:05:57.143Z,28.00
2019-01-25T07:08:25.682Z,26.37
2019-01-25T07:10:54.246Z,28.60
2019-01-25T07:13:22.725Z,26.57
2019-01-25T07:15:51.249Z,26.60
2019-01-25T07:18:19.722Z,28.47
2019-01-25T07:20:48.198Z,26.27
2019-01-25T07:23:16.700Z,27.93
2019-01-25T07:25:45.543Z,27.97
2019-01-25T07:28:14.069Z,27.23
2019-01-25T07:30:42.549Z,28.87
2019-01-25T07:33:11.029Z,28.87
2019-01-25T07:35:39.569Z,27.17
2019-01-25T07:38:08.104Z,29.17
2019-01-25T07:40:36.610Z,28.60
2019-01-25T07:43:05.217Z,28.47
2019-01-25T07:45:33.807Z,27.00
2019-01-25T07:48:02.367Z,28.10
2019-01-25T07:50:30.914Z,29.60
2019-01-25T07:52:59.553Z,27.63
2019-01-25T07:55:28.566Z,26.13
2019-01-25T07:57:57.142Z,27.47
2019-01-25T08:00:26.001Z,28.33
2019-01-25T08:02:54.790Z,27.03
2019-01-25T08:05:23.305Z,28.20
2019-01-25T08:07:52.274Z,27.43
2019-01-25T08:10:22.616Z,27.10
2019-01-25T08:12:51.162Z,30.00
2019-01-25T08:15:22.205Z,28.47
2019-01-25T08:17:50.726Z,28.83
2019-01-25T08:20:19.353Z,28.90
2019-01-25T08:22:48.474Z,28.13
2019-01-25T08:25:17.021Z,28.60
2019-01-25T08:27:45.565Z,29.30
2019-01-25T08:30:22.176Z,29.53
2019-01-25T08:32:51.707Z,28.67
2019-01-25T08:35:21.651Z,29.27
2019-01-25T08:37:50.321Z,27.30
2019-01-25T08:40:19.019Z,30.73
2019-01-25T08:42:47.892Z,28.10
2019-01-25T08:45:17.872Z,29.43
2019-01-25T08:47:46.624Z,29.23
2019-01-25T08:50:18.566Z,32.00
2019-01-25T08:52:47.568Z,41.50
2019-01-25T08:55:16.741Z,39.40
2019-01-25T08:57:45.598Z,35.50
2019-01-25T09:00:19.417Z,33.80
2019-01-25T09:02:47.973Z,31.30
2019-01-25T09:05:17.541Z,30.10
2019-01-25T09:07:46.258Z,28.20
2019-01-25T09:10:17.760Z,28.77
2019-01-25T09:12:46.307Z,29.27
2019-01-25T09:15:17.752Z,28.03
2019-01-25T09:17:46.674Z,28.47
2019-01-25T09:20:20.808Z,29.00
2019-01-25T09:22:49.366Z,28.43
2019-01-25T09:25:18.106Z,28.43
2019-01-25T09:27:47.537Z,27.57
2019-01-25T09:30:18.407Z,26.07
2019-01-25T09:32:46.942Z,27.53
2019-01-25T09:35:16.378Z,26.87
2019-01-25T09:37:44.955Z,24.90
2019-01-25T09:40:19.119Z,25.43
2019-01-25T09:42:47.673Z,26.50
2019-01-25T09:45:16.253Z,24.13
2019-01-25T09:47:44.736Z,23.93
2019-01-25T09:50:16.118Z,25.57
2019-01-25T09:52:44.710Z,25.03
2019-01-25T09:55:16.333Z,24.70
2019-01-25T09:57:44.994Z,22.03
2019-01-25T10:00:22.350Z,23.63
2019-01-25T10:02:52.813Z,23.77
2019-01-25T10:05:21.360Z,23.03
2019-01-25T10:07:49.843Z,22.90
2019-01-25T10:10:18.471Z,24.93
2019-01-25T10:12:46.934Z,22.77
2019-01-25T10:15:18.565Z,24.10
2019-01-25T10:17:46.732Z,23.33
2019-01-25T10:20:16.234Z,22.47
2019-01-25T10:22:45.121Z,21.67
2019-01-25T10:25:14.032Z,23.20
2019-01-25T10:27:42.601Z,23.93
2019-01-25T10:30:23.127Z,24.60
2019-01-25T10:32:51.634Z,25.17
2019-01-25T10:35:20.257Z,25.20
2019-01-25T10:37:48.982Z,23.90
2019-01-25T10:40:19.749Z,25.57
2019-01-25T10:42:53.208Z,27.43
2019-01-25T10:45:31.115Z,25.50
2019-01-25T10:47:59.718Z,26.03
2019-01-25T10:50:28.330Z,26.03
2019-01-25T10:52:56.754Z,25.23
2019-01-25T10:55:24.932Z,23.97
2019-01-25T10:57:53.087Z,23.67
2019-01-25T11:00:22.757Z,21.23
2019-01-25T11:02:58.091Z,22.37
2019-01-25T11:05:28.633Z,22.87
2019-01-25T11:07:56.857Z,23.20
2019-01-25T11:10:25.425Z,24.30
2019-01-25T11:13:00.480Z,23.03
2019-01-25T11:15:24.487Z,21.70
2019-01-25T11:17:53.055Z,22.33
2019-01-25T11:20:22.057Z,20.93
2019-01-25T11:22:50.622Z,21.73
2019-01-25T11:25:22.182Z,21.50
2019-01-25T11:27:50.689Z,24.63
2019-01-25T11:30:19.010Z,23.30
2019-01-25T11:32:47.562Z,20.57
2019-01-25T11:35:16.049Z,22.37
2019-01-25T11:37:45.296Z,22.20
2019-01-25T11:40:27.966Z,21.50
2019-01-25T11:42:56.284Z,20.47
2019-01-25T11:45:25.111Z,20.80
2019-01-25T11:47:53.706Z,20.47
2019-01-25T11:50:22.469Z,21.57
2019-01-25T11:52:51.158Z,22.07
2019-01-25T11:55:20.169Z,20.53
2019-01-25T11:57:48.859Z,21.60
2019-01-25T12:00:23.486Z,21.00
2019-01-25T12:02:53.599Z,21.97
2019-01-25T12:05:23.810Z,23.83
2019-01-25T12:07:52.853Z,22.50
2019-01-25T12:10:23.389Z,21.60
2019-01-25T12:12:51.926Z,21.30
2019-01-25T12:15:20.536Z,21.27
2019-01-25T12:17:49.072Z,20.23
2019-01-25T12:20:23.363Z,20.27
2019-01-25T12:22:51.979Z,20.67
2019-01-25T12:25:20.704Z,20.03
2019-01-25T12:27:49.234Z,20.17
2019-01-25T12:30:21.731Z,21.17
2019-01-25T12:32:50.498Z,21.73
2019-01-25T12:35:18.973Z,28.17
2019-01-25T12:37:47.187Z,27.23
2019-01-25T12:40:17.855Z,25.50
2019-01-25T12:42:46.689Z,28.87
2019-01-25T12:45:20.600Z,32.17
2019-01-25T12:47:50.438Z,31.67
2019-01-25T12:50:20.363Z,34.00
2019-01-25T12:52:48.594Z,32.53
2019-01-25T12:55:17.305Z,28.67
2019-01-25T12:57:45.481Z,25.57
2019-01-25T13:00:16.901Z,24.97
2019-01-25T13:02:45.694Z,24.70
2019-01-25T13:05:15.444Z,24.37
2019-01-25T13:07:43.591Z,25.63
2019-01-25T13:10:15.097Z,24.87
2019-01-25T13:12:44.007Z,25.73
2019-01-25T13:15:13.732Z,24.27
2019-01-25T13:17:42.371Z,27.10
2019-01-25T13:20:17.726Z,26.57
2019-01-25T13:22:46.227Z,23.90
2019-01-25T13:25:14.771Z,22.63
2019-01-25T13:27:43.085Z,24.63
2019-01-25T13:30:29.077Z,21.90
2019-01-25T13:32:57.822Z,22.87
2019-01-25T13:35:26.445Z,21.80
2019-01-25T13:37:55.021Z,22.63
2019-01-25T13:40:25.601Z,22.10
2019-01-25T13:42:54.632Z,21.83
2019-01-25T13:45:23.695Z,21.20
2019-01-25T13:47:52.991Z,20.40
2019-01-25T13:50:25.102Z,19.80
2019-01-25T13:52:53.920Z,19.60
2019-01-25T13:55:22.470Z,19.93
2019-01-25T13:57:50.952Z,19.10
2019-01-25T14:00:20.637Z,19.93
2019-01-25T14:02:48.870Z,19.60
2019-01-25T14:05:17.447Z,19.53
2019-01-25T14:07:46.013Z,19.63
2019-01-25T14:10:23.100Z,18.33
2019-01-25T14:12:51.587Z,19.60
2019-01-25T14:15:20.691Z,20.60
2019-01-25T14:17:50.249Z,18.83
2019-01-25T14:20:23.415Z,19.17
2019-01-25T14:22:52.306Z,19.50
2019-01-25T14:25:21.986Z,18.47
2019-01-25T14:27:50.935Z,20.37
2019-01-25T14:30:25.210Z,19.40
2019-01-25T14:32:53.839Z,19.87
2019-01-25T14:35:22.387Z,18.47
2019-01-25T14:37:52.433Z,17.97
2019-01-25T14:40:21.261Z,18.70
2019-01-25T14:42:49.768Z,18.60
2019-01-25T14:45:19.898Z,18.83
2019-01-25T14:47:48.765Z,18.23
2019-01-25T14:50:20.120Z,18.07
2019-01-25T14:52:48.658Z,17.80
2019-01-25T14:55:17.504Z,18.77
2019-01-25T14:57:46.091Z,18.10
2019-01-25T15:00:15.929Z,18.47
2019-01-25T15:02:44.491Z,18.43
2019-01-25T15:05:15.820Z,19.63
2019-01-25T15:07:44.471Z,18.23
2019-01-25T15:10:15.799Z,17.37
2019-01-25T15:12:44.930Z,18.23
2019-01-25T15:15:14.677Z,19.80
2019-01-25T15:17:43.565Z,18.83
2019-01-25T15:20:20.731Z,19.60
2019-01-25T15:22:49.216Z,18.03
2019-01-25T15:25:18.157Z,18.87
2019-01-25T15:27:46.828Z,21.00
2019-01-25T15:30:24.473Z,19.00
2019-01-25T15:32:53.054Z,18.43
2019-01-25T15:35:22.188Z,19.27
2019-01-25T15:37:50.664Z,19.73
2019-01-25T15:40:20.648Z,18.90
2019-01-25T15:42:49.361Z,19.33
2019-01-25T15:45:19.697Z,18.57
2019-01-25T15:47:48.644Z,19.50
2019-01-25T15:50:29.244Z,17.93
2019-01-25T15:52:57.945Z,18.87
2019-01-25T15:55:26.918Z,20.00
2019-01-25T15:57:55.533Z,20.07
2019-01-25T16:00:28.470Z,18.43
2019-01-25T16:02:57.297Z,20.00
2019-01-25T16:05:26.738Z,20.93
2019-01-25T16:07:55.468Z,18.67
2019-01-25T16:10:24.185Z,18.93
2019-01-25T16:12:53.660Z,20.17
2019-01-25T16:15:24.470Z,19.97
2019-01-25T16:17:53.120Z,21.07
2019-01-25T16:20:21.582Z,19.10
2019-01-25T16:22:52.271Z,19.23
2019-01-25T16:25:29.128Z,20.43
2019-01-25T16:27:57.614Z,20.37
2019-01-25T16:30:31.520Z,22.63
2019-01-25T16:33:01.558Z,26.83
2019-01-25T16:35:30.706Z,27.47
2019-01-25T16:37:59.159Z,37.87
2019-01-25T16:40:32.598Z,31.37
2019-01-25T16:43:03.156Z,25.83
2019-01-25T16:45:40.604Z,25.40
2019-01-25T16:48:09.740Z,26.13
2019-01-25T16:50:39.776Z,26.53
2019-01-25T16:53:09.983Z,25.90
2019-01-25T16:55:38.549Z,26.37
2019-01-25T16:58:07.162Z,26.87
2019-01-25T17:00:38.093Z,26.10
2019-01-25T17:03:07.212Z,25.00
2019-01-25T17:05:37.127Z,26.50
2019-01-25T17:08:06.718Z,25.87
2019-01-25T17:10:35.315Z,25.67
2019-01-25T17:13:04.147Z,49.57
2019-01-25T17:15:33.772Z,35.70
2019-01-25T17:18:03.680Z,31.93
2019-01-25T17:20:32.224Z,32.33
2019-01-25T17:23:00.731Z,31.90
2019-01-25T17:25:29.345Z,31.80
2019-01-25T17:27:57.990Z,30.63
2019-01-25T17:30:32.621Z,26.87
2019-01-25T17:33:01.652Z,28.53
2019-01-25T17:35:30.897Z,27.63
2019-01-25T17:37:59.521Z,28.70
2019-01-25T17:40:37.223Z,26.63
2019-01-25T17:43:05.834Z,24.27
2019-01-25T17:45:34.379Z,25.67
2019-01-25T17:48:03.115Z,25.30
2019-01-25T17:50:31.683Z,23.60
2019-01-25T17:53:00.175Z,25.37
2019-01-25T17:55:28.731Z,25.00
2019-01-25T17:57:57.233Z,26.57
2019-01-25T18:00:33.019Z,23.83
2019-01-25T18:03:01.512Z,25.23
2019-01-25T18:05:29.998Z,25.30
2019-01-25T18:07:58.553Z,25.07
2019-01-25T18:10:27.126Z,24.53
2019-01-25T18:12:55.662Z,22.07
2019-01-25T18:15:24.161Z,21.67
2019-01-25T18:17:52.632Z,21.97
2019-01-25T18:20:23.168Z,20.63
2019-01-25T18:22:51.987Z,20.63
2019-01-25T18:25:34.918Z,20.40
2019-01-25T18:28:06.487Z,20.60
2019-01-25T18:30:41.018Z,18.77
2019-01-25T18:33:09.744Z,19.80
2019-01-25T18:35:38.216Z,17.90
2019-01-25T18:38:06.836Z,18.83
2019-01-25T18:40:35.323Z,18.40
2019-01-25T18:43:03.880Z,18.27
2019-01-25T18:45:32.861Z,19.10
2019-01-25T18:48:01.339Z,20.00
2019-01-25T18:50:29.823Z,19.03
2019-01-25T18:52:58.350Z,19.50
2019-01-25T18:55:26.901Z,21.07
2019-01-25T18:57:55.375Z,21.57
2019-01-25T19:00:25.961Z,19.20
2019-01-25T19:02:54.663Z,20.77
2019-01-25T19:05:25.221Z,29.57
2019-01-25T19:07:54.133Z,21.33
2019-01-25T19:10:25.765Z,22.57
2019-01-25T19:12:54.230Z,21.47
2019-01-25T19:15:30.402Z,21.07
2019-01-25T19:17:59.039Z,44.10
2019-01-25T19:20:27.849Z,29.57
2019-01-25T19:22:56.423Z,31.63
2019-01-25T19:25:24.968Z,33.30
2019-01-25T19:27:53.478Z,24.80
2019-01-25T19:30:27.773Z,30.90
2019-01-25T19:32:56.608Z,31.43
2019-01-25T19:35:25.223Z,25.13
2019-01-25T19:37:53.786Z,28.03
2019-01-25T19:40:25.338Z,22.47
2019-01-25T19:42:54.237Z,24.33
2019-01-25T19:45:22.987Z,21.10
2019-01-25T19:47:51.550Z,22.90
2019-01-25T19:50:20.877Z,21.57
2019-01-25T19:52:49.556Z,18.80
2019-01-25T19:55:20.505Z,19.43
2019-01-25T19:57:49.419Z,18.30
2019-01-25T20:00:23.755Z,18.10
2019-01-25T20:02:52.351Z,16.93
2019-01-25T20:05:23.710Z,16.97
2019-01-25T20:07:52.243Z,15.97
2019-01-25T20:10:22.064Z,15.73
2019-01-25T20:12:50.805Z,15.83
2019-01-25T20:15:23.854Z,14.97
2019-01-25T20:17:52.724Z,13.20
2019-01-25T20:20:29.983Z,11.87
2019-01-25T20:22:58.659Z,11.57
2019-01-25T20:25:27.208Z,11.43
2019-01-25T20:27:55.760Z,11.60
2019-01-25T20:30:32.390Z,11.03
2019-01-25T20:33:02.406Z,11.50
2019-01-25T20:35:33.290Z,9.23
2019-01-25T20:38:01.915Z,10.23
2019-01-25T20:40:30.510Z,9.20
2019-01-25T20:42:58.977Z,9.47
2019-01-25T20:45:33.090Z,8.27
2019-01-25T20:48:01.927Z,8.40
2019-01-25T20:50:35.128Z,8.77
2019-01-25T20:53:04.640Z,8.50
2019-01-25T20:55:33.272Z,7.97
2019-01-25T20:58:01.895Z,7.97
2019-01-25T21:00:32.873Z,8.47
2019-01-25T21:03:01.674Z,8.30
2019-01-25T21:05:30.399Z,7.47
2019-01-25T21:07:59.289Z,8.17
2019-01-25T21:10:28.031Z,8.00
2019-01-25T21:12:56.567Z,8.10
2019-01-25T21:15:34.750Z,7.50
2019-01-25T21:17:57.740Z,7.60
2019-01-25T21:20:29.258Z,7.40
2019-01-25T21:22:57.789Z,6.77
2019-01-25T21:25:26.460Z,7.50
2019-01-25T21:27:55.011Z,7.63
2019-01-25T21:30:26.245Z,7.23
2019-01-25T21:32:54.721Z,7.57
2019-01-25T21:35:23.323Z,7.87
2019-01-25T21:37:51.802Z,7.07
2019-01-25T21:40:25.514Z,7.30
2019-01-25T21:42:54.430Z,7.03
2019-01-25T21:45:25.247Z,6.87
2019-01-25T21:47:53.879Z,7.00
2019-01-25T21:50:25.176Z,7.23
2019-01-25T21:52:53.935Z,7.40
2019-01-25T21:55:22.444Z,6.53
2019-01-25T21:57:51.075Z,6.50
2019-01-25T22:00:34.188Z,6.30
2019-01-25T22:03:04.235Z,6.27
2019-01-25T22:05:33.088Z,6.60
2019-01-25T22:08:01.623Z,5.93
2019-01-25T22:10:33.418Z,7.07
2019-01-25T22:13:02.058Z,6.20
2019-01-25T22:15:30.681Z,6.00
2019-01-25T22:17:59.371Z,5.57
2019-01-25T22:20:29.609Z,6.63
2019-01-25T22:22:58.228Z,6.50
2019-01-25T22:25:26.785Z,6.77
2019-01-25T22:27:55.989Z,6.00
2019-01-25T22:30:29.327Z,6.17
2019-01-25T22:32:57.868Z,6.70
2019-01-25T22:35:26.663Z,6.67
2019-01-25T22:37:55.227Z,7.00
2019-01-25T22:40:25.825Z,7.10
2019-01-25T22:42:54.401Z,7.13
2019-01-25T22:45:25.104Z,7.87
2019-01-25T22:47:53.567Z,6.50
2019-01-25T22:50:24.189Z,6.90
2019-01-25T22:52:52.971Z,6.57
2019-01-25T22:55:22.498Z,7.37
2019-01-25T22:57:51.406Z,6.80
2019-01-25T23:00:47.007Z,6.33
2019-01-25T23:03:18.444Z,6.13
2019-01-25T23:06:23.189Z,6.80
2019-01-25T23:08:51.671Z,6.70
2019-01-25T23:11:20.407Z,7.00
2019-01-25T23:13:48.866Z,6.87
2019-01-25T23:16:17.440Z,6.80
2019-01-25T23:18:45.896Z,6.43
2019-01-25T23:21:14.364Z,7.23
2019-01-25T23:23:42.846Z,6.73
2019-01-25T23:26:11.324Z,6.33
2019-01-25T23:28:39.807Z,6.83
2019-01-25T23:31:08.295Z,7.40
2019-01-25T23:33:36.790Z,6.70
2019-01-25T23:36:05.435Z,6.80
2019-01-25T23:38:33.935Z,6.77
2019-01-25T23:41:02.422Z,6.23
2019-01-25T23:43:31.288Z,6.43
2019-01-25T23:45:59.752Z,6.63
2019-01-25T23:48:28.234Z,6.30
2019-01-25T23:50:56.724Z,6.83
2019-01-25T23:53:25.524Z,6.57
2019-01-25T23:55:54.284Z,6.67
2019-01-25T23:58:22.779Z,6.70
